createdAt,value
2022-10-06T00:04:15.284Z,25.95
2022-10-06T00:09:18.853Z,25.86
2022-10-06T00:14:22.710Z,25.73
2022-10-06T00:19:28.013Z,25.64
2022-10-06T00:24:34.610Z,25.65
2022-10-06T00:29:38.148Z,25.48
2022-10-06T00:34:43.349Z,25.38
2022-10-06T00:39:46.899Z,25.27
2022-10-06T00:44:50.815Z,25.21
2022-10-06T00:49:56.544Z,25.21
2022-10-06T00:55:00.524Z,25.28
2022-10-06T01:00:04.657Z,25.09
2022-10-06T01:05:14.490Z,24.91
2022-10-06T01:10:18.141Z,24.81
2022-10-06T01:15:22.959Z,24.55
2022-10-06T01:20:27.400Z,24.23
2022-10-06T01:25:35.083Z,23.95
2022-10-06T01:30:44.145Z,23.85
2022-10-06T01:35:50.050Z,23.56
2022-10-06T01:40:56.097Z,23.39
2022-10-06T01:46:00.094Z,23.05
2022-10-06T01:51:03.735Z,23.09
2022-10-06T01:56:09.089Z,23.01
2022-10-06T02:01:12.674Z,22.92
2022-10-06T02:06:16.340Z,22.49
2022-10-06T02:11:21.554Z,22.39
2022-10-06T02:16:25.169Z,22.35
2022-10-06T02:21:28.750Z,22.24
2022-10-06T02:26:33.942Z,21.78
2022-10-06T02:31:37.523Z,21.71
2022-10-06T02:36:41.092Z,21.72
2022-10-06T02:41:46.270Z,21.77
2022-10-06T02:46:49.400Z,21.48
2022-10-06T02:51:53.038Z,21.31
2022-10-06T02:56:58.226Z,21.59
2022-10-06T03:02:01.224Z,21.47
2022-10-06T03:07:05.192Z,21.34
2022-10-06T03:12:10.599Z,21.22
2022-10-06T03:17:14.123Z,21.24
2022-10-06T03:22:17.630Z,20.92
2022-10-06T03:27:22.835Z,20.97
2022-10-06T03:32:25.862Z,20.80
2022-10-06T03:37:32.779Z,20.45
2022-10-06T03:42:50.689Z,20.37
2022-10-06T03:47:56.776Z,20.16
2022-10-06T03:53:00.328Z,20.07
2022-10-06T03:58:05.510Z,19.84
2022-10-06T04:03:09.085Z,19.77
2022-10-06T04:08:15.013Z,19.43
2022-10-06T04:13:20.987Z,19.21
2022-10-06T04:18:25.001Z,19.20
2022-10-06T04:23:28.576Z,19.02
2022-10-06T04:28:34.659Z,18.89
2022-10-06T04:33:38.514Z,18.77
2022-10-06T04:38:42.111Z,18.57
2022-10-06T04:43:49.002Z,18.52
2022-10-06T04:48:53.221Z,18.47
2022-10-06T04:53:56.835Z,18.35
2022-10-06T04:59:02.025Z,18.30
2022-10-06T05:04:06.696Z,18.20
2022-10-06T05:09:12.143Z,18.09
2022-10-06T05:14:17.302Z,18.12
2022-10-06T05:19:20.881Z,17.97
2022-10-06T05:24:24.434Z,17.88
2022-10-06T05:29:29.617Z,17.81
2022-10-06T05:34:33.263Z,17.77
2022-10-06T05:39:36.799Z,17.63
2022-10-06T05:44:41.960Z,17.62
2022-10-06T05:49:45.496Z,17.62
2022-10-06T05:54:49.033Z,17.53
2022-10-06T06:00:24.851Z,17.49
2022-10-06T06:05:48.479Z,17.41
2022-10-06T06:10:57.019Z,17.30
2022-10-06T06:16:03.315Z,17.13
2022-10-06T06:21:08.237Z,16.91
2022-10-06T06:26:13.430Z,16.90
2022-10-06T06:31:20.446Z,16.86
2022-10-06T06:36:25.853Z,16.80
2022-10-06T06:41:31.257Z,16.72
2022-10-06T06:46:36.615Z,16.76
2022-10-06T06:51:41.477Z,16.66
2022-10-06T06:56:45.751Z,16.70
2022-10-06T07:01:51.041Z,16.66
2022-10-06T07:06:54.669Z,16.54
2022-10-06T07:11:58.313Z,16.54
2022-10-06T07:17:03.474Z,16.53
2022-10-06T07:22:15.931Z,16.39
2022-10-06T07:27:19.475Z,16.37
2022-10-06T07:32:25.520Z,16.19
2022-10-06T07:37:29.497Z,16.16
2022-10-06T07:42:33.685Z,16.11
2022-10-06T07:47:38.920Z,16.08
2022-10-06T07:52:42.451Z,15.95
2022-10-06T07:57:46.493Z,15.81
2022-10-06T08:02:51.841Z,15.78
2022-10-06T08:07:55.380Z,15.74
2022-10-06T08:12:59.002Z,15.73
2022-10-06T08:18:16.504Z,15.68
2022-10-06T08:23:25.120Z,15.62
2022-10-06T08:28:28.671Z,15.61
2022-10-06T08:33:33.926Z,15.46
2022-10-06T08:38:38.020Z,15.34
2022-10-06T08:43:41.675Z,15.18
2022-10-06T08:48:46.887Z,15.14
2022-10-06T08:53:59.973Z,15.33
2022-10-06T08:59:04.917Z,15.43
2022-10-06T09:04:14.489Z,15.28
2022-10-06T09:09:34.312Z,15.14
2022-10-06T09:14:43.786Z,15.15
2022-10-06T09:19:55.760Z,15.05
2022-10-06T09:25:06.285Z,15.04
2022-10-06T09:30:12.986Z,15.02
2022-10-06T09:35:22.795Z,14.97
2022-10-06T09:40:40.523Z,14.85
2022-10-06T09:45:44.124Z,14.72
2022-10-06T09:51:08.874Z,14.54
2022-10-06T09:56:18.413Z,14.54
2022-10-06T10:01:25.792Z,14.49
2022-10-06T10:06:32.368Z,14.51
2022-10-06T10:11:35.946Z,14.50
2022-10-06T10:16:39.820Z,14.46
2022-10-06T10:21:46.076Z,14.50
2022-10-06T10:26:57.123Z,14.45
2022-10-06T10:32:10.666Z,14.25
2022-10-06T10:37:20.275Z,14.11
2022-10-06T10:42:30.897Z,14.19
2022-10-06T10:47:38.494Z,14.23
2022-10-06T10:52:47.700Z,13.95
2022-10-06T10:57:54.385Z,14.01
2022-10-06T11:02:59.732Z,14.02
2022-10-06T11:08:10.270Z,13.91
2022-10-06T11:13:23.311Z,13.92
2022-10-06T11:18:41.642Z,13.82
2022-10-06T11:23:52.792Z,13.66
2022-10-06T11:29:03.615Z,13.54
2022-10-06T11:34:07.484Z,13.65
2022-10-06T11:39:22.228Z,13.83
2022-10-06T11:44:35.050Z,13.76
2022-10-06T11:49:51.843Z,13.71
2022-10-06T11:55:09.655Z,13.65
2022-10-06T12:00:42.120Z,13.50
2022-10-06T12:06:00.723Z,13.49
2022-10-06T12:11:39.081Z,13.49
2022-10-06T12:22:14.093Z,13.10
2022-10-06T12:27:29.698Z,13.02
2022-10-06T12:32:45.868Z,12.98
2022-10-06T12:37:53.934Z,12.88
2022-10-06T12:43:38.602Z,12.85
2022-10-06T12:48:56.899Z,12.79
2022-10-06T12:54:08.468Z,12.72
2022-10-06T12:59:25.231Z,12.76
2022-10-06T13:04:39.955Z,12.50
2022-10-06T13:09:43.604Z,12.44
2022-10-06T13:14:47.140Z,12.46
2022-10-06T13:19:52.755Z,12.49
2022-10-06T13:25:01.323Z,12.45
2022-10-06T13:30:19.728Z,12.45
2022-10-06T13:35:26.657Z,12.43
2022-10-06T13:40:46.193Z,12.44
2022-10-06T13:45:49.943Z,12.39
2022-10-06T13:50:55.238Z,12.29
2022-10-06T13:55:59.347Z,12.28
2022-10-06T14:01:03.278Z,12.17
2022-10-06T14:06:18.399Z,12.18
2022-10-06T14:11:26.646Z,12.62
2022-10-06T14:16:30.879Z,13.11
2022-10-06T14:21:40.863Z,13.23
2022-10-06T14:26:45.243Z,13.22
2022-10-06T14:31:50.036Z,12.94
2022-10-06T14:36:55.253Z,12.98
2022-10-06T14:41:58.861Z,12.95
2022-10-06T14:47:02.383Z,13.10
2022-10-06T14:52:07.614Z,13.38
2022-10-06T14:57:11.207Z,13.66
2022-10-06T15:02:14.711Z,13.91
2022-10-06T15:07:20.577Z,14.31
2022-10-06T15:12:24.206Z,14.65
2022-10-06T15:17:27.713Z,15.12
2022-10-06T15:22:32.899Z,15.38
2022-10-06T15:27:36.487Z,15.80
2022-10-06T15:32:40.108Z,16.26
2022-10-06T15:37:45.744Z,16.71
2022-10-06T15:42:49.315Z,17.20
2022-10-06T15:47:52.962Z,17.71
2022-10-06T15:52:59.229Z,18.18
2022-10-06T15:58:02.770Z,18.52
2022-10-06T16:03:06.448Z,18.87
2022-10-06T16:08:11.645Z,19.37
2022-10-06T16:13:15.209Z,19.81
2022-10-06T16:18:18.749Z,20.03
2022-10-06T16:23:23.956Z,20.35
2022-10-06T16:28:27.506Z,20.59
2022-10-06T16:33:31.077Z,20.95
2022-10-06T16:38:36.252Z,21.38
2022-10-06T16:43:41.423Z,21.34
2022-10-06T16:48:46.357Z,21.52
2022-10-06T16:53:52.677Z,21.80
2022-10-06T16:58:57.361Z,22.14
2022-10-06T17:04:01.843Z,22.34
2022-10-06T17:09:08.117Z,22.48
2022-10-06T17:14:11.799Z,22.67
2022-10-06T17:19:18.153Z,22.40
2022-10-06T17:24:24.442Z,22.78
2022-10-06T17:29:28.099Z,22.84
2022-10-06T17:34:33.224Z,23.07
2022-10-06T17:39:40.058Z,23.22
2022-10-06T17:44:45.090Z,23.22
2022-10-06T17:49:48.613Z,23.21
2022-10-06T17:54:55.111Z,23.25
2022-10-06T17:59:58.658Z,23.26
2022-10-06T18:05:02.187Z,23.20
2022-10-06T18:10:08.220Z,23.35
2022-10-06T18:15:12.711Z,23.46
2022-10-06T18:20:16.390Z,23.47
2022-10-06T18:25:26.603Z,23.50
2022-10-06T18:30:30.420Z,23.59
2022-10-06T18:41:01.284Z,23.79
2022-10-06T18:46:06.365Z,23.79
2022-10-06T18:51:09.183Z,23.91
2022-10-06T18:56:15.435Z,24.00
2022-10-06T19:01:19.058Z,24.14
2022-10-06T19:06:23.024Z,24.36
2022-10-06T19:11:28.790Z,24.53
2022-10-06T19:16:32.382Z,24.60
2022-10-06T19:21:35.942Z,24.64
2022-10-06T19:26:45.773Z,24.44
2022-10-06T19:31:50.958Z,24.68
2022-10-06T19:36:54.642Z,24.65
2022-10-06T19:41:59.873Z,24.80
2022-10-06T19:47:03.418Z,24.96
2022-10-06T19:52:08.017Z,25.16
2022-10-06T19:57:13.522Z,25.04
2022-10-06T20:02:17.085Z,25.21
2022-10-06T20:07:20.679Z,25.43
2022-10-06T20:12:25.943Z,25.58
2022-10-06T20:17:29.501Z,25.77
2022-10-06T20:22:33.214Z,25.62
2022-10-06T20:27:38.390Z,25.96
2022-10-06T20:32:42.646Z,26.12
2022-10-06T20:37:46.479Z,26.22
2022-10-06T20:42:52.081Z,26.60
2022-10-06T20:47:55.620Z,26.75
2022-10-06T20:52:59.176Z,26.79
2022-10-06T20:58:04.396Z,26.90
2022-10-06T21:03:08.032Z,27.11
2022-10-06T21:08:11.623Z,27.13
2022-10-06T21:13:16.771Z,27.26
2022-10-06T21:18:20.385Z,27.28
2022-10-06T21:23:24.037Z,27.27
2022-10-06T21:28:29.339Z,27.37
2022-10-06T21:33:34.328Z,27.45
2022-10-06T21:38:38.376Z,27.46
2022-10-06T21:43:43.540Z,27.51
2022-10-06T21:48:51.411Z,27.56
2022-10-06T21:53:55.676Z,27.47
2022-10-06T21:59:01.169Z,27.53
2022-10-06T22:04:05.188Z,27.68
2022-10-06T22:09:12.345Z,27.75
2022-10-06T22:14:18.997Z,27.53
2022-10-06T22:19:22.634Z,27.40
2022-10-06T22:24:26.207Z,27.27
2022-10-06T22:29:32.356Z,27.16
2022-10-06T22:34:35.915Z,26.90
2022-10-06T22:39:39.471Z,26.73
2022-10-06T22:44:44.668Z,26.41
2022-10-06T22:49:48.246Z,26.26
2022-10-06T22:54:51.760Z,26.09
2022-10-06T22:59:57.033Z,26.08
2022-10-06T23:05:00.556Z,25.98
2022-10-06T23:10:04.155Z,25.98
2022-10-06T23:15:10.348Z,25.93
2022-10-06T23:20:14.249Z,25.86
2022-10-06T23:25:17.871Z,25.95
2022-10-06T23:30:23.016Z,25.91
2022-10-06T23:35:26.564Z,25.91
2022-10-06T23:40:30.084Z,25.82
2022-10-06T23:45:35.278Z,25.76
2022-10-06T23:50:38.835Z,25.67
2022-10-06T23:55:42.354Z,25.66
